createdAt,value
2019-03-31T00:01:26.043Z,47.88
2019-03-31T00:03:56.118Z,44.97
2019-03-31T00:06:26.174Z,49.55
2019-03-31T00:08:57.517Z,55.35
2019-03-31T00:11:28.687Z,76.97
2019-03-31T00:13:58.778Z,85.10
2019-03-31T00:16:28.894Z,87.47
2019-03-31T00:18:58.982Z,74.00
2019-03-31T00:21:29.068Z,78.63
2019-03-31T00:23:59.157Z,73.87
2019-03-31T00:26:29.216Z,54.77
2019-03-31T00:28:59.325Z,43.37
2019-03-31T00:31:29.409Z,47.03
2019-03-31T00:33:59.575Z,57.75
2019-03-31T00:36:29.712Z,70.60
2019-03-31T00:38:59.818Z,74.97
2019-03-31T00:41:29.908Z,68.45
2019-03-31T00:44:01.010Z,70.83
2019-03-31T00:46:31.069Z,60.40
2019-03-31T00:49:01.230Z,64.62
2019-03-31T00:51:31.384Z,57.83
2019-03-31T00:54:01.506Z,55.92
2019-03-31T00:56:31.579Z,67.08
2019-03-31T00:59:01.730Z,58.83
2019-03-31T01:01:44.065Z,56.77
2019-03-31T01:04:18.557Z,52.08
2019-03-31T01:06:51.521Z,49.37
2019-03-31T01:09:25.332Z,51.37
2019-03-31T01:11:55.753Z,52.55
2019-03-31T01:14:26.467Z,52.15
2019-03-31T01:16:57.209Z,53.23
2019-03-31T01:19:27.678Z,54.33
2019-03-31T01:21:57.836Z,62.30
2019-03-31T01:24:27.939Z,58.95
2019-03-31T01:26:58.041Z,64.20
2019-03-31T01:29:28.291Z,69.90
2019-03-31T01:31:58.561Z,71.80
2019-03-31T01:34:28.644Z,73.70
2019-03-31T01:36:58.837Z,106.30
2019-03-31T01:39:31.360Z,114.80
2019-03-31T01:42:01.572Z,122.30
2019-03-31T01:44:31.682Z,123.62
2019-03-31T01:47:01.839Z,120.22
2019-03-31T01:49:31.932Z,89.55
2019-03-31T01:52:02.812Z,71.42
2019-03-31T01:54:32.913Z,69.47
2019-03-31T01:57:02.974Z,67.87
2019-03-31T01:59:33.048Z,69.90
2019-03-31T02:02:04.578Z,73.72
2019-03-31T02:04:34.832Z,91.30
2019-03-31T02:07:05.094Z,131.75
2019-03-31T02:09:35.164Z,130.57
2019-03-31T02:12:05.323Z,124.40
2019-03-31T02:14:35.396Z,130.63
2019-03-31T02:17:05.484Z,129.95
2019-03-31T02:19:35.561Z,135.95
2019-03-31T02:22:05.739Z,135.97
2019-03-31T02:24:35.809Z,137.50
2019-03-31T02:27:05.911Z,132.50
2019-03-31T02:29:35.991Z,135.68
2019-03-31T02:32:22.556Z,134.55
2019-03-31T02:34:37.933Z,142.15
2019-03-31T02:37:08.037Z,144.95
2019-03-31T02:39:38.104Z,140.62
2019-03-31T02:42:08.278Z,141.50
2019-03-31T02:44:38.431Z,142.13
2019-03-31T02:47:08.547Z,135.88
2019-03-31T02:49:38.618Z,142.25
2019-03-31T02:52:08.921Z,132.93
2019-03-31T02:54:39.091Z,138.15
2019-03-31T02:57:09.366Z,141.43
2019-03-31T02:59:39.940Z,132.30
2019-03-31T03:02:10.129Z,133.63
2019-03-31T03:04:42.158Z,125.62
2019-03-31T03:07:13.828Z,135.07
2019-03-31T03:09:45.713Z,128.62
2019-03-31T03:12:18.035Z,125.87
2019-03-31T03:14:50.192Z,122.27
2019-03-31T03:17:20.268Z,123.00
2019-03-31T03:19:50.340Z,127.10
2019-03-31T03:22:20.491Z,128.10
2019-03-31T03:24:50.589Z,128.45
2019-03-31T03:27:20.696Z,137.25
2019-03-31T03:29:50.732Z,133.52
2019-03-31T03:32:20.877Z,146.70
2019-03-31T03:34:50.946Z,146.40
2019-03-31T03:37:21.171Z,152.05
2019-03-31T03:39:51.192Z,147.10
2019-03-31T03:42:22.244Z,153.83
2019-03-31T03:44:52.309Z,170.05
2019-03-31T03:47:23.440Z,203.67
2019-03-31T03:49:53.532Z,214.42
2019-03-31T03:52:23.594Z,241.15
2019-03-31T03:54:53.734Z,255.25
2019-03-31T03:57:23.811Z,236.30
2019-03-31T03:59:53.921Z,230.20
2019-03-31T04:02:24.011Z,248.75
2019-03-31T04:04:54.096Z,242.77
2019-03-31T04:07:24.177Z,219.77
2019-03-31T04:09:54.260Z,195.65
2019-03-31T04:12:24.348Z,207.98
2019-03-31T04:14:54.412Z,213.53
2019-03-31T04:17:24.532Z,215.00
2019-03-31T04:19:54.596Z,216.83
2019-03-31T04:22:24.680Z,207.07
2019-03-31T04:24:54.735Z,212.30
2019-03-31T04:27:24.837Z,200.95
2019-03-31T04:29:54.895Z,204.97
2019-03-31T04:32:25.013Z,195.92
2019-03-31T04:34:55.067Z,185.00
2019-03-31T04:37:25.184Z,176.50
2019-03-31T04:39:55.256Z,165.45
2019-03-31T04:42:25.374Z,158.65
2019-03-31T04:44:55.442Z,166.53
2019-03-31T04:47:25.570Z,154.63
2019-03-31T04:49:55.645Z,151.35
2019-03-31T04:52:25.747Z,133.20
2019-03-31T04:54:55.839Z,134.80
2019-03-31T04:57:25.929Z,137.05
2019-03-31T04:59:56.005Z,138.85
2019-03-31T05:02:27.318Z,130.90
2019-03-31T05:04:57.568Z,122.72
2019-03-31T05:07:27.649Z,121.25
2019-03-31T05:09:57.757Z,125.25
2019-03-31T05:12:27.834Z,121.60
2019-03-31T05:14:57.904Z,109.85
2019-03-31T05:17:27.994Z,118.67
2019-03-31T05:19:58.060Z,114.80
2019-03-31T05:22:28.149Z,110.60
2019-03-31T05:24:58.244Z,113.42
2019-03-31T05:27:28.323Z,103.10
2019-03-31T05:29:58.398Z,110.48
2019-03-31T05:32:28.482Z,108.25
2019-03-31T05:34:58.545Z,99.77
2019-03-31T05:37:28.622Z,92.90
2019-03-31T05:39:58.700Z,100.02
2019-03-31T05:42:28.789Z,103.70
2019-03-31T05:44:58.847Z,97.10
2019-03-31T05:47:28.930Z,96.45
2019-03-31T05:49:58.990Z,100.57
2019-03-31T05:52:29.073Z,97.33
2019-03-31T05:54:59.145Z,104.70
2019-03-31T05:57:29.223Z,100.80
2019-03-31T05:59:59.303Z,99.17
2019-03-31T06:02:29.376Z,104.87
2019-03-31T06:04:59.468Z,103.02
2019-03-31T06:07:29.568Z,103.32
2019-03-31T06:09:59.658Z,108.83
2019-03-31T06:12:29.744Z,112.65
2019-03-31T06:14:59.827Z,104.00
2019-03-31T06:17:29.901Z,114.28
2019-03-31T06:20:00.019Z,104.25
2019-03-31T06:22:30.093Z,104.80
2019-03-31T06:25:00.353Z,110.15
2019-03-31T06:27:30.484Z,105.32
2019-03-31T06:30:00.523Z,106.58
2019-03-31T06:32:30.616Z,101.60
2019-03-31T06:35:00.717Z,104.10
2019-03-31T06:37:30.811Z,100.97
2019-03-31T06:40:00.977Z,96.22
2019-03-31T06:42:31.062Z,103.15
2019-03-31T06:45:01.139Z,94.72
2019-03-31T06:47:31.250Z,93.37
2019-03-31T06:50:01.315Z,92.47
2019-03-31T06:52:31.406Z,79.15
2019-03-31T06:55:02.555Z,83.00
2019-03-31T06:57:32.697Z,83.62
2019-03-31T07:00:02.768Z,80.32
2019-03-31T07:02:32.878Z,77.17
2019-03-31T07:05:02.953Z,74.87
2019-03-31T07:07:33.071Z,77.62
2019-03-31T07:10:03.181Z,74.10
2019-03-31T07:12:33.302Z,72.22
2019-03-31T07:15:03.551Z,74.40
2019-03-31T07:17:33.669Z,65.07
2019-03-31T07:20:04.142Z,64.97
2019-03-31T07:22:34.239Z,65.65
2019-03-31T07:25:04.774Z,64.95
2019-03-31T07:27:34.864Z,56.70
2019-03-31T07:30:07.286Z,56.35
2019-03-31T07:32:37.702Z,58.92
2019-03-31T07:35:18.188Z,64.37
2019-03-31T07:37:47.030Z,53.78
2019-03-31T07:40:13.266Z,57.50
2019-03-31T07:42:43.413Z,48.28
2019-03-31T07:45:15.393Z,62.10
2019-03-31T07:47:45.652Z,59.18
2019-03-31T07:50:18.112Z,52.95
2019-03-31T07:52:48.181Z,41.60
2019-03-31T07:55:18.396Z,42.60
2019-03-31T07:57:48.574Z,46.48
2019-03-31T08:00:20.517Z,36.08
2019-03-31T08:02:50.678Z,43.40
2019-03-31T08:05:32.391Z,42.13
2019-03-31T08:07:52.590Z,42.80
2019-03-31T08:10:23.905Z,37.35
2019-03-31T08:12:54.027Z,43.95
2019-03-31T08:15:25.054Z,31.68
2019-03-31T08:17:55.154Z,33.35
2019-03-31T08:20:25.337Z,36.28
2019-03-31T08:22:57.068Z,25.70
2019-03-31T08:25:27.285Z,29.55
2019-03-31T08:27:57.571Z,24.82
2019-03-31T08:30:27.953Z,28.80
2019-03-31T08:32:58.050Z,27.48
2019-03-31T08:35:28.135Z,26.60
2019-03-31T08:37:58.262Z,24.12
2019-03-31T08:40:28.420Z,22.10
2019-03-31T08:42:58.622Z,21.68
2019-03-31T08:45:30.447Z,17.10
2019-03-31T08:48:00.541Z,22.30
2019-03-31T08:50:30.651Z,22.40
2019-03-31T08:53:00.744Z,19.80
2019-03-31T08:55:30.833Z,21.77
2019-03-31T08:58:00.951Z,16.05
2019-03-31T09:00:50.076Z,17.57
2019-03-31T09:03:20.160Z,13.15
2019-03-31T09:06:01.115Z,14.58
2019-03-31T09:08:22.013Z,19.23
2019-03-31T09:10:52.129Z,12.15
2019-03-31T09:13:22.318Z,17.23
2019-03-31T09:15:52.399Z,16.87
2019-03-31T09:18:22.494Z,22.20
2019-03-31T09:20:52.691Z,16.90
2019-03-31T09:23:22.980Z,19.70
2019-03-31T09:25:53.039Z,14.93
2019-03-31T09:28:23.182Z,21.63
2019-03-31T09:30:55.922Z,14.75
2019-03-31T09:33:26.082Z,14.73
2019-03-31T09:35:56.183Z,15.88
2019-03-31T09:38:26.542Z,12.47
2019-03-31T09:40:56.800Z,15.38
2019-03-31T09:43:27.798Z,15.60
2019-03-31T09:45:57.882Z,17.30
2019-03-31T09:48:31.056Z,11.67
2019-03-31T09:51:01.157Z,13.93
2019-03-31T09:53:31.247Z,17.02
2019-03-31T09:56:01.337Z,15.95
2019-03-31T09:58:31.467Z,18.25
2019-03-31T10:01:01.541Z,9.45
2019-03-31T10:03:31.633Z,15.27
2019-03-31T10:06:10.774Z,13.78
2019-03-31T10:08:33.697Z,12.17
2019-03-31T10:11:03.865Z,10.60
2019-03-31T10:14:12.644Z,17.50
2019-03-31T10:16:42.725Z,16.15
2019-03-31T10:19:13.183Z,20.08
2019-03-31T10:21:43.335Z,14.65
2019-03-31T10:24:13.789Z,12.58
2019-03-31T10:26:44.034Z,10.40
2019-03-31T10:29:14.157Z,13.97
2019-03-31T10:31:44.229Z,7.65
2019-03-31T10:34:14.332Z,7.43
2019-03-31T10:36:45.096Z,12.43
2019-03-31T10:39:15.601Z,15.60
2019-03-31T10:41:45.684Z,14.60
2019-03-31T10:44:15.758Z,8.00
2019-03-31T10:46:45.859Z,14.93
2019-03-31T10:49:15.937Z,12.43
2019-03-31T10:51:46.035Z,11.60
2019-03-31T10:54:16.989Z,15.00
2019-03-31T10:56:47.267Z,6.30
2019-03-31T10:59:17.436Z,11.50
2019-03-31T11:01:47.533Z,7.55
2019-03-31T11:04:17.631Z,13.32
2019-03-31T11:06:58.459Z,12.17
2019-03-31T11:09:19.511Z,11.93
2019-03-31T11:11:49.595Z,15.85
2019-03-31T11:14:19.949Z,12.57
2019-03-31T11:16:50.123Z,14.05
2019-03-31T11:19:21.860Z,15.53
2019-03-31T11:22:05.357Z,11.10
2019-03-31T11:24:35.622Z,15.50
2019-03-31T11:27:05.829Z,18.53
2019-03-31T11:29:35.925Z,14.60
2019-03-31T11:32:06.049Z,13.20
2019-03-31T11:34:36.134Z,16.60
2019-03-31T11:37:13.274Z,12.90
2019-03-31T11:39:38.188Z,14.38
2019-03-31T11:42:08.356Z,12.58
2019-03-31T11:44:38.441Z,9.60
2019-03-31T11:47:08.579Z,12.65
2019-03-31T11:49:38.831Z,16.00
2019-03-31T11:52:09.001Z,13.25
2019-03-31T11:54:39.065Z,14.47
2019-03-31T11:57:09.194Z,11.85
2019-03-31T11:59:39.286Z,11.95
2019-03-31T12:02:09.451Z,9.68
2019-03-31T12:04:39.531Z,15.13
2019-03-31T12:07:09.601Z,11.64
2019-03-31T12:09:39.671Z,10.20
2019-03-31T12:12:09.756Z,16.95
2019-03-31T12:14:39.860Z,15.70
2019-03-31T12:17:10.040Z,17.12
2019-03-31T12:19:40.160Z,16.17
2019-03-31T12:22:10.327Z,15.48
2019-03-31T12:24:40.548Z,15.97
2019-03-31T12:27:10.762Z,8.43
2019-03-31T12:29:40.841Z,15.75
2019-03-31T12:32:11.102Z,14.10
2019-03-31T12:34:41.168Z,16.20
2019-03-31T12:37:11.300Z,16.60
2019-03-31T12:39:41.372Z,17.40
2019-03-31T12:42:11.502Z,16.43
2019-03-31T12:44:41.567Z,12.88
2019-03-31T12:47:11.686Z,13.83
2019-03-31T12:49:41.760Z,14.25
2019-03-31T12:52:12.875Z,16.48
2019-03-31T12:54:43.202Z,16.13
2019-03-31T12:57:13.364Z,12.03
2019-03-31T12:59:43.500Z,16.30
2019-03-31T13:02:13.709Z,14.00
2019-03-31T13:04:43.912Z,12.20
2019-03-31T13:07:15.017Z,12.35
2019-03-31T13:09:45.170Z,10.43
2019-03-31T13:12:15.243Z,11.03
2019-03-31T13:14:46.291Z,10.50
2019-03-31T13:17:17.324Z,8.70
2019-03-31T13:19:48.433Z,12.77
2019-03-31T13:22:19.482Z,18.77
2019-03-31T13:24:49.655Z,10.87
2019-03-31T13:27:19.712Z,12.50
2019-03-31T13:29:49.818Z,15.37
2019-03-31T13:32:20.527Z,14.60
2019-03-31T13:34:50.613Z,12.03
2019-03-31T13:37:20.749Z,17.43
2019-03-31T13:39:50.837Z,13.00
2019-03-31T13:42:20.984Z,16.00
2019-03-31T13:44:51.051Z,9.43
2019-03-31T13:47:21.128Z,15.77
2019-03-31T13:49:51.202Z,14.25
2019-03-31T13:52:21.323Z,9.83
2019-03-31T13:54:51.381Z,8.90
2019-03-31T13:57:22.614Z,12.30
2019-03-31T13:59:52.834Z,13.38
2019-03-31T14:02:23.044Z,15.70
2019-03-31T14:04:53.103Z,10.50
2019-03-31T14:07:23.196Z,16.02
2019-03-31T14:09:53.309Z,14.97
2019-03-31T14:12:23.388Z,14.40
2019-03-31T14:14:53.471Z,15.90
2019-03-31T14:17:24.573Z,12.05
2019-03-31T14:19:54.906Z,13.87
2019-03-31T14:22:25.136Z,12.88
2019-03-31T14:24:55.251Z,11.37
2019-03-31T14:27:25.359Z,10.32
2019-03-31T14:29:55.436Z,11.80
2019-03-31T14:32:25.534Z,6.00
2019-03-31T14:34:55.709Z,11.48
2019-03-31T14:37:25.823Z,6.47
2019-03-31T14:39:55.899Z,10.10
2019-03-31T14:42:26.089Z,10.68
2019-03-31T14:44:56.223Z,11.88
2019-03-31T14:47:26.366Z,6.65
2019-03-31T14:49:57.488Z,12.47
2019-03-31T14:52:28.065Z,6.43
2019-03-31T14:54:58.160Z,6.60
2019-03-31T14:57:28.220Z,6.75
2019-03-31T14:59:58.297Z,7.47
2019-03-31T15:02:29.457Z,8.15
2019-03-31T15:04:59.594Z,7.70
2019-03-31T15:07:29.671Z,15.53
2019-03-31T15:09:59.771Z,7.30
2019-03-31T15:12:29.829Z,9.78
2019-03-31T15:15:00.033Z,9.23
2019-03-31T15:17:30.127Z,10.57
2019-03-31T15:20:00.368Z,8.37
2019-03-31T15:22:30.445Z,11.40
2019-03-31T15:25:01.185Z,10.58
2019-03-31T15:27:31.286Z,11.93
2019-03-31T15:30:01.381Z,10.90
2019-03-31T15:32:32.681Z,7.42
2019-03-31T15:35:02.790Z,9.13
2019-03-31T15:37:32.883Z,11.57
2019-03-31T15:40:03.014Z,11.97
2019-03-31T15:42:33.121Z,8.85
2019-03-31T15:45:03.276Z,10.80
2019-03-31T15:47:33.365Z,8.50
2019-03-31T15:50:03.488Z,10.48
2019-03-31T15:52:33.664Z,7.20
2019-03-31T15:55:03.758Z,13.00
2019-03-31T15:57:33.839Z,8.50
2019-03-31T16:00:04.932Z,10.10
2019-03-31T16:02:35.003Z,5.97
2019-03-31T16:05:06.174Z,7.47
2019-03-31T16:07:36.385Z,8.63
2019-03-31T16:10:07.023Z,6.70
2019-03-31T16:12:36.572Z,8.75
2019-03-31T16:15:06.442Z,8.38
2019-03-31T16:17:36.108Z,9.90
2019-03-31T16:20:06.045Z,6.63
2019-03-31T16:22:35.547Z,7.35
2019-03-31T16:25:09.828Z,6.53
2019-03-31T16:27:39.517Z,9.53
2019-03-31T16:30:09.138Z,9.95
2019-03-31T16:32:38.656Z,8.03
2019-03-31T16:35:09.330Z,8.53
2019-03-31T16:37:38.879Z,6.83
2019-03-31T16:40:08.495Z,9.53
2019-03-31T16:42:38.121Z,7.95
2019-03-31T16:45:07.917Z,9.43
2019-03-31T16:47:37.434Z,7.07
2019-03-31T16:50:07.127Z,5.55
2019-03-31T16:52:36.666Z,8.15
2019-03-31T16:55:06.381Z,12.23
2019-03-31T16:57:37.003Z,9.03
2019-03-31T17:00:07.602Z,11.23
2019-03-31T17:02:37.174Z,9.60
2019-03-31T17:05:20.767Z,11.97
2019-03-31T17:07:38.552Z,10.57
2019-03-31T17:10:08.215Z,15.90
2019-03-31T17:12:37.734Z,13.37
2019-03-31T17:15:07.467Z,7.90
2019-03-31T17:17:36.985Z,12.33
2019-03-31T17:20:07.802Z,10.05
2019-03-31T17:22:37.488Z,13.90
2019-03-31T17:25:08.218Z,10.47
2019-03-31T17:27:38.101Z,7.80
2019-03-31T17:30:09.562Z,11.43
2019-03-31T17:32:39.099Z,11.83
2019-03-31T17:35:08.707Z,11.68
2019-03-31T17:37:38.258Z,7.75
2019-03-31T17:40:07.865Z,10.70
2019-03-31T17:42:37.452Z,11.47
2019-03-31T17:45:07.469Z,18.70
2019-03-31T17:47:37.495Z,14.00
2019-03-31T17:50:07.217Z,14.43
2019-03-31T17:52:36.700Z,18.32
2019-03-31T17:55:06.789Z,15.58
2019-03-31T17:57:37.408Z,14.30
2019-03-31T18:00:09.264Z,13.93
2019-03-31T18:02:38.814Z,16.60
2019-03-31T18:05:08.632Z,16.30
2019-03-31T18:07:38.149Z,10.40
2019-03-31T18:10:20.157Z,12.20
2019-03-31T18:12:38.966Z,8.90
2019-03-31T18:15:08.952Z,14.57
2019-03-31T18:17:38.493Z,8.50
2019-03-31T18:20:08.555Z,11.73
2019-03-31T18:22:38.510Z,11.55
2019-03-31T18:25:08.336Z,16.15
2019-03-31T18:27:38.226Z,19.00
2019-03-31T18:30:08.096Z,7.17
2019-03-31T18:32:37.606Z,11.43
2019-03-31T18:35:07.334Z,14.90
2019-03-31T18:37:36.875Z,10.00
2019-03-31T18:40:07.205Z,10.40
2019-03-31T18:42:36.895Z,9.70
2019-03-31T18:45:06.945Z,11.33
2019-03-31T18:47:36.935Z,15.53
2019-03-31T18:50:06.801Z,15.40
2019-03-31T18:52:37.491Z,12.15
2019-03-31T18:55:27.038Z,11.60
2019-03-31T18:58:02.354Z,12.17
2019-03-31T19:01:03.410Z,10.60
2019-03-31T19:03:50.617Z,15.67
2019-03-31T19:06:32.783Z,19.75
2019-03-31T19:09:21.410Z,14.00
2019-03-31T19:12:09.962Z,16.82
2019-03-31T19:14:51.784Z,14.83
2019-03-31T19:17:31.310Z,9.83
2019-03-31T19:20:29.140Z,10.30
2019-03-31T19:23:08.566Z,15.13
2019-03-31T19:25:56.586Z,15.57
2019-03-31T19:28:41.850Z,13.40
2019-03-31T19:31:36.612Z,17.23
2019-03-31T19:34:25.817Z,15.27
2019-03-31T19:37:14.404Z,15.38
2019-03-31T19:39:53.186Z,12.90
2019-03-31T19:42:41.862Z,17.30
2019-03-31T19:45:29.509Z,14.97
2019-03-31T19:48:07.574Z,15.72
2019-03-31T19:51:11.589Z,13.72
2019-03-31T19:54:06.123Z,11.65
2019-03-31T19:56:46.017Z,14.30
2019-03-31T19:59:37.725Z,14.47
2019-03-31T20:02:32.422Z,15.77
2019-03-31T20:05:19.846Z,9.65
2019-03-31T20:08:00.739Z,12.95
2019-03-31T20:10:45.962Z,10.23
2019-03-31T20:13:52.948Z,10.30
2019-03-31T20:16:45.136Z,15.10
2019-03-31T20:19:46.013Z,15.28
2019-03-31T20:22:34.595Z,13.60
2019-03-31T20:25:35.548Z,12.23
2019-03-31T20:28:11.443Z,16.53
2019-03-31T20:30:52.717Z,12.70
2019-03-31T20:33:40.276Z,11.95
2019-03-31T20:36:36.074Z,10.93
2019-03-31T20:39:23.471Z,16.53
2019-03-31T20:42:09.383Z,14.33
2019-03-31T20:44:38.998Z,14.68
2019-03-31T20:47:08.550Z,11.20
2019-03-31T20:49:38.100Z,14.90
2019-03-31T20:52:07.671Z,11.70
2019-03-31T20:54:37.214Z,14.70
2019-03-31T20:57:07.885Z,17.20
2019-03-31T20:59:39.962Z,9.38
2019-03-31T21:02:09.556Z,12.25
2019-03-31T21:04:40.177Z,14.10
2019-03-31T21:07:10.114Z,12.97
2019-03-31T21:09:45.227Z,13.72
2019-03-31T21:12:11.222Z,10.95
2019-03-31T21:14:40.861Z,12.33
2019-03-31T21:17:11.253Z,18.50
2019-03-31T21:19:40.815Z,10.50
2019-03-31T21:22:10.374Z,12.43
2019-03-31T21:24:40.115Z,11.68
2019-03-31T21:27:12.632Z,9.95
2019-03-31T21:29:42.173Z,8.33
2019-03-31T21:32:11.700Z,12.40
2019-03-31T21:34:41.248Z,11.93
2019-03-31T21:37:10.792Z,11.35
2019-03-31T21:39:40.304Z,12.40
2019-03-31T21:42:09.829Z,10.98
2019-03-31T21:44:39.349Z,13.83
2019-03-31T21:47:08.879Z,12.15
2019-03-31T21:49:38.387Z,8.50
2019-03-31T21:52:07.908Z,15.50
2019-03-31T21:54:37.437Z,12.07
2019-03-31T21:57:06.964Z,9.40
2019-03-31T21:59:36.503Z,10.10
2019-03-31T22:02:06.004Z,9.08
2019-03-31T22:04:35.543Z,13.43
2019-03-31T22:07:05.140Z,11.80
2019-03-31T22:09:34.652Z,8.20
2019-03-31T22:12:04.324Z,11.48
2019-03-31T22:14:33.835Z,9.25
2019-03-31T22:17:03.360Z,10.68
2019-03-31T22:19:32.882Z,9.53
2019-03-31T22:22:02.484Z,7.03
2019-03-31T22:24:31.998Z,8.80
2019-03-31T22:27:01.636Z,14.07
2019-03-31T22:29:31.175Z,9.85
2019-03-31T22:32:00.701Z,13.70
2019-03-31T22:34:30.230Z,17.25
2019-03-31T22:36:59.807Z,11.53
2019-03-31T22:39:29.339Z,10.90
2019-03-31T22:41:58.858Z,9.45
2019-03-31T22:44:28.396Z,10.65
2019-03-31T22:46:57.960Z,18.40
2019-03-31T22:49:27.497Z,13.25
2019-03-31T22:51:57.032Z,13.68
2019-03-31T22:54:29.183Z,7.03
2019-03-31T22:56:58.762Z,9.25
2019-03-31T22:59:28.362Z,10.80
2019-03-31T23:01:58.105Z,7.92
2019-03-31T23:04:27.830Z,12.13
2019-03-31T23:06:57.340Z,8.27
2019-03-31T23:09:26.933Z,9.93
2019-03-31T23:11:56.444Z,12.40
2019-03-31T23:14:25.963Z,16.42
2019-03-31T23:16:55.475Z,11.90
2019-03-31T23:19:25.010Z,10.55
2019-03-31T23:21:54.557Z,12.47
2019-03-31T23:24:24.095Z,8.15
2019-03-31T23:26:53.615Z,14.55
2019-03-31T23:29:23.131Z,10.03
2019-03-31T23:31:52.639Z,12.18
2019-03-31T23:34:22.154Z,10.30
2019-03-31T23:36:51.676Z,10.05
2019-03-31T23:39:21.246Z,12.93
2019-03-31T23:41:50.723Z,13.68
2019-03-31T23:44:20.256Z,6.97
2019-03-31T23:46:49.755Z,7.08
2019-03-31T23:49:19.297Z,10.80
2019-03-31T23:51:48.809Z,6.03
2019-03-31T23:54:18.335Z,13.15
2019-03-31T23:56:47.861Z,9.25
2019-03-31T23:59:17.394Z,7.58
